Time;durP1;ratioP1;P1;durP2;ratioP2;P2;SDS_P1;SDS_P2;PMS_P1;PMS_P2;Temp;Humidity;BMP_temperature;BMP_pressure;BME280_temperature;BME280_humidity;BME280_pressure;Samples;Min_cycle;Max_cycle;Signal;HPM_P1;HPM_P2
2023/02/13 00:02:26;;;;;;;18.42;12.02;;;7.70;99.90;;;;;;5087948;28;20035;-74
2023/02/13 00:04:52;;;;;;;18.83;12.02;;;7.70;99.90;;;;;;5090424;27;20035;-73
2023/02/13 00:07:18;;;;;;;16.65;10.63;;;7.70;99.90;;;;;;5109837;27;20035;-73
2023/02/13 00:09:44;;;;;;;17.48;12.20;;;7.70;99.90;;;;;;5084539;27;20040;-73
2023/02/13 00:12:11;;;;;;;23.23;13.55;;;7.70;99.90;;;;;;5110958;27;20035;-74
2023/02/13 00:14:38;;;;;;;17.48;11.15;;;7.70;99.90;;;;;;5060312;27;20040;-73
2023/02/13 00:17:05;;;;;;;17.73;11.13;;;7.70;99.90;;;;;;5091855;27;20395;-73
2023/02/13 00:19:32;;;;;;;20.23;12.68;;;7.70;99.90;;;;;;5104998;27;20487;-73
2023/02/13 00:21:58;;;;;;;23.50;15.55;;;7.70;99.90;;;;;;5067588;28;20035;-73
2023/02/13 00:24:25;;;;;;;20.15;13.63;;;7.70;99.90;;;;;;5075612;28;20053;-73
2023/02/13 00:26:51;;;;;;;22.33;14.02;;;7.70;99.90;;;;;;5077535;27;20031;-73
2023/02/13 00:29:17;;;;;;;23.10;13.90;;;7.70;99.90;;;;;;5088032;27;20081;-73
2023/02/13 00:31:43;;;;;;;22.65;14.25;;;7.70;99.90;;;;;;5107161;27;20043;-73
2023/02/13 00:34:10;;;;;;;19.20;11.77;;;7.60;99.90;;;;;;5078914;27;20039;-73
2023/02/13 00:36:36;;;;;;;17.98;12.15;;;7.60;99.90;;;;;;5096342;27;20043;-74
2023/02/13 00:39:02;;;;;;;18.05;11.80;;;7.60;99.90;;;;;;5097735;27;20043;-73
2023/02/13 00:41:29;;;;;;;21.67;13.75;;;7.60;99.90;;;;;;5086215;28;20036;-74
2023/02/13 00:43:55;;;;;;;21.85;13.73;;;7.60;99.90;;;;;;5069896;28;20588;-74
2023/02/13 00:46:22;;;;;;;20.55;12.57;;;7.50;99.90;;;;;;5108929;27;20031;-74
2023/02/13 00:48:48;;;;;;;19.95;12.98;;;7.40;99.90;;;;;;5106805;27;20023;-73
2023/02/13 00:51:14;;;;;;;19.80;12.50;;;7.40;99.90;;;;;;5066119;27;20148;-73
2023/02/13 00:53:41;;;;;;;20.30;12.13;;;7.40;99.90;;;;;;5088858;27;20476;-73
2023/02/13 00:56:07;;;;;;;20.40;13.00;;;7.50;99.90;;;;;;5107529;27;20031;-73
2023/02/13 00:58:35;;;;;;;21.30;13.00;;;7.40;99.90;;;;;;5073757;27;20039;-73
2023/02/13 01:01:02;;;;;;;18.15;11.00;;;7.50;99.90;;;;;;5080953;27;20406;-73
2023/02/13 01:03:28;;;;;;;22.70;12.98;;;7.50;99.90;;;;;;5072198;27;20039;-73
2023/02/13 01:05:56;;;;;;;23.02;13.52;;;7.50;99.90;;;;;;5089534;28;20150;-74
2023/02/13 01:08:23;;;;;;;22.38;13.93;;;7.50;99.90;;;;;;5088263;27;20059;-73
2023/02/13 01:10:49;;;;;;;24.88;14.85;;;7.50;99.90;;;;;;5084411;27;20035;-72
2023/02/13 01:13:17;;;;;;;20.08;12.80;;;7.50;99.90;;;;;;5089181;28;20039;-73
2023/02/13 01:15:44;;;;;;;22.52;13.65;;;7.50;99.90;;;;;;5075533;28;20038;-72
2023/02/13 01:18:19;;;;;;;24.08;15.65;;;7.50;99.90;;;;;;5075971;28;20027;-72
2023/02/13 01:20:57;;;;;;;24.50;14.27;;;7.50;99.90;;;;;;5100953;27;20051;-72
2023/02/13 01:23:23;;;;;;;20.98;12.15;;;7.50;99.90;;;;;;5070744;27;20031;-72
2023/02/13 01:25:51;;;;;;;18.05;12.07;;;7.50;99.90;;;;;;5095359;27;20386;-73
2023/02/13 01:28:18;;;;;;;21.83;13.50;;;7.50;99.90;;;;;;5089466;28;20043;-72
2023/02/13 01:30:44;;;;;;;19.20;12.70;;;7.50;99.90;;;;;;5099429;27;20105;-72
2023/02/13 01:33:11;;;;;;;21.77;13.00;;;7.50;99.90;;;;;;5092905;28;20051;-73
2023/02/13 01:35:40;;;;;;;23.48;14.35;;;7.50;99.90;;;;;;5090564;27;20043;-72
2023/02/13 01:38:09;;;;;;;27.38;16.17;;;7.60;99.90;;;;;;5082717;28;20038;-72
2023/02/13 01:40:35;;;;;;;22.15;14.18;;;7.60;99.90;;;;;;5080836;27;20035;-73
2023/02/13 01:43:01;;;;;;;25.13;13.30;;;7.60;99.90;;;;;;5088808;27;20040;-73
2023/02/13 01:45:29;;;;;;;20.67;12.85;;;7.50;99.90;;;;;;5112590;27;20062;-72
2023/02/13 01:48:01;;;;;;;17.27;11.48;;;7.60;99.90;;;;;;5075635;28;20532;-73
2023/02/13 01:50:33;;;;;;;18.92;11.43;;;7.60;99.90;;;;;;5060130;28;20039;-73
2023/02/13 01:53:07;;;;;;;26.40;16.13;;;7.60;99.90;;;;;;5087515;28;20043;-73
2023/02/13 01:55:38;;;;;;;25.23;14.68;;;7.60;99.90;;;;;;5086978;28;20043;-74
2023/02/13 01:58:11;;;;;;;33.13;21.48;;;7.60;99.90;;;;;;5072580;28;20062;-73
2023/02/13 02:00:38;;;;;;;;;;;7.60;99.90;;;;;;5090729;28;20035;-73
2023/02/13 02:03:14;;;;;;;22.92;14.25;;;7.60;99.90;;;;;;5072984;27;19915;-73
2023/02/13 02:05:42;;;;;;;18.48;12.30;;;7.60;99.90;;;;;;5086448;28;20027;-73
2023/02/13 02:08:11;;;;;;;23.77;13.88;;;7.60;99.90;;;;;;5073664;28;20046;-74
2023/02/13 02:10:38;;;;;;;21.85;13.45;;;7.60;99.90;;;;;;5062492;28;20083;-73
2023/02/13 02:13:17;;;;;;;19.45;12.63;;;7.60;99.90;;;;;;5069224;28;20039;-73
2023/02/13 02:15:44;;;;;;;19.38;11.85;;;7.60;99.90;;;;;;5086846;28;20513;-73
2023/02/13 02:18:19;;;;;;;19.27;11.95;;;7.70;99.90;;;;;;5064946;28;20407;-73
2023/02/13 02:21:07;;;;;;;19.50;12.10;;;7.70;99.90;;;;;;5079953;28;20436;-72
2023/02/13 02:23:39;;;;;;;21.67;12.27;;;7.70;99.90;;;;;;5083253;28;20039;-73
2023/02/13 02:26:32;;;;;;;23.55;15.10;;;7.70;99.90;;;;;;5090668;28;20484;-73
2023/02/13 02:29:33;;;;;;;22.20;13.98;;;7.70;99.90;;;;;;5087565;28;20040;-73
2023/02/13 02:32:18;;;;;;;25.10;15.80;;;7.70;99.90;;;;;;5069547;27;20512;-73
2023/02/13 02:34:59;;;;;;;23.92;15.60;;;7.70;99.90;;;;;;5063334;28;20055;-73
2023/02/13 02:37:30;;;;;;;26.08;15.60;;;7.70;99.90;;;;;;5090556;28;20036;-73
2023/02/13 02:40:05;;;;;;;32.40;18.92;;;7.70;99.90;;;;;;5084803;27;20042;-75
2023/02/13 02:42:59;;;;;;;25.77;16.55;;;7.70;99.90;;;;;;5076194;27;20367;-74
2023/02/13 02:45:36;;;;;;;24.88;16.35;;;7.70;99.90;;;;;;5094006;28;20055;-73
2023/02/13 02:51:29;;;;;;;20.55;13.13;;;7.70;99.90;;;;;;5099862;27;20050;-73
2023/02/13 02:57:15;;;;;;;18.27;11.80;;;7.70;99.90;;;;;;5072430;27;20584;-73
2023/02/13 03:13:17;;;;;;;18.30;11.90;;;7.70;99.90;;;;;;5093560;27;20047;-73
2023/02/13 03:13:48;;;;;;;20.90;12.63;;;7.70;99.90;;;;;;5090394;27;20043;-73
2023/02/13 03:22:19;;;;;;;29.37;17.77;;;7.70;99.90;;;;;;5083215;27;20058;-73
2023/02/13 03:25:04;;;;;;;27.63;17.55;;;7.70;99.90;;;;;;5108425;27;20289;-73
2023/02/13 03:30:32;;;;;;;25.38;15.88;;;7.70;99.90;;;;;;5080535;27;20044;-74
2023/02/13 03:33:16;;;;;;;25.23;15.93;;;7.70;99.90;;;;;;5090801;28;20393;-73
2023/02/13 03:38:58;;;;;;;23.08;14.15;;;7.70;99.90;;;;;;5106994;27;20036;-73
2023/02/13 03:41:47;;;;;;;21.00;13.88;;;7.70;99.90;;;;;;5078439;28;20043;-73
2023/02/13 03:44:29;;;;;;;22.35;13.25;;;7.70;99.90;;;;;;5094068;28;20039;-74
2023/02/13 03:46:59;;;;;;;19.75;12.05;;;7.80;99.90;;;;;;5075139;28;20035;-73
2023/02/13 03:52:26;;;;;;;20.90;12.80;;;7.80;99.90;;;;;;5085225;28;20394;-73
2023/02/13 04:00:38;;;;;;;20.27;12.38;;;7.80;99.90;;;;;;5097727;27;20297;-74
2023/02/13 04:03:36;;;;;;;23.88;14.75;;;7.80;99.90;;;;;;5106949;27;20046;-74
2023/02/13 04:06:34;;;;;;;25.35;14.23;;;7.80;99.90;;;;;;5107321;27;20031;-75
2023/02/13 04:09:01;;;;;;;23.85;13.82;;;7.80;99.90;;;;;;5086756;28;20058;-74
2023/02/13 04:11:34;;;;;;;17.40;11.38;;;7.80;99.90;;;;;;5085282;27;20062;-74
2023/02/13 04:14:07;;;;;;;22.95;13.75;;;7.80;99.90;;;;;;5090452;28;20032;-73
2023/02/13 04:16:44;;;;;;;22.38;14.38;;;7.80;99.90;;;;;;5107060;27;20032;-74
2023/02/13 04:19:11;;;;;;;20.13;13.15;;;7.80;99.90;;;;;;5108602;27;20498;-75
2023/02/13 04:21:39;;;;;;;23.02;13.23;;;7.70;99.90;;;;;;5101009;27;20040;-74
2023/02/13 04:24:06;;;;;;;20.20;13.30;;;7.70;99.90;;;;;;5068439;27;20561;-74
2023/02/13 04:26:37;;;;;;;20.00;13.05;;;7.80;99.90;;;;;;5121602;27;20031;-74
2023/02/13 04:29:04;;;;;;;21.10;13.30;;;7.80;99.90;;;;;;5101316;27;20117;-73
2023/02/13 04:31:30;;;;;;;25.17;15.30;;;7.80;99.90;;;;;;5108307;27;20035;-74
2023/02/13 04:33:57;;;;;;;22.40;13.35;;;7.80;99.90;;;;;;5093662;28;20047;-73
2023/02/13 04:36:23;;;;;;;19.08;12.30;;;7.80;99.90;;;;;;5088478;28;20038;-74
2023/02/13 04:38:50;;;;;;;21.85;13.45;;;7.80;99.90;;;;;;5088850;27;20039;-72
2023/02/13 04:41:16;;;;;;;20.02;13.18;;;7.80;99.90;;;;;;5082882;28;20499;-75
2023/02/13 04:43:42;;;;;;;22.42;13.95;;;7.80;99.90;;;;;;5075803;27;20544;-73
2023/02/13 04:46:09;;;;;;;21.17;14.07;;;7.80;99.90;;;;;;5071790;27;20395;-74
2023/02/13 04:48:35;;;;;;;21.55;13.85;;;7.80;99.90;;;;;;5092857;27;20610;-73
2023/02/13 04:51:02;;;;;;;23.38;14.15;;;7.80;99.90;;;;;;5098548;27;20443;-73
2023/02/13 04:53:28;;;;;;;21.90;13.38;;;7.80;99.90;;;;;;5088866;28;20039;-74
2023/02/13 04:55:54;;;;;;;23.23;15.43;;;7.80;99.90;;;;;;5087533;28;20031;-73
2023/02/13 04:58:21;;;;;;;22.30;14.65;;;7.80;99.90;;;;;;5088794;27;20032;-73
2023/02/13 05:00:47;;;;;;;22.67;12.77;;;7.80;99.90;;;;;;5062566;28;20402;-73
2023/02/13 05:03:13;;;;;;;22.00;14.23;;;7.70;99.90;;;;;;5107096;27;20043;-73
2023/02/13 05:05:39;;;;;;;22.67;13.85;;;7.70;99.90;;;;;;5089777;28;20074;-73
2023/02/13 05:08:07;;;;;;;23.45;14.57;;;7.70;99.90;;;;;;5082869;27;20502;-73
2023/02/13 05:10:33;;;;;;;21.20;13.85;;;7.70;99.90;;;;;;5079349;28;20498;-73
2023/02/13 05:13:00;;;;;;;24.02;14.77;;;7.70;99.90;;;;;;5105665;27;20034;-74
2023/02/13 05:15:26;;;;;;;27.80;17.20;;;7.70;99.90;;;;;;5088829;28;20035;-73
2023/02/13 05:17:52;;;;;;;24.50;14.82;;;7.70;99.90;;;;;;5106685;27;20031;-74
2023/02/13 05:20:19;;;;;;;25.70;15.30;;;7.70;99.90;;;;;;5064595;27;20057;-73
2023/02/13 05:25:40;;;;;;;24.00;15.00;;;7.70;99.90;;;;;;5088194;28;20036;-73
2023/02/13 05:29:17;;;;;;;27.67;16.05;;;7.70;99.90;;;;;;5090026;27;20032;-74
2023/02/13 05:30:56;;;;;;;24.33;14.73;;;7.70;99.90;;;;;;5100792;27;20019;-73
2023/02/13 05:33:22;;;;;;;19.05;12.85;;;7.70;99.90;;;;;;5056447;28;20046;-74
2023/02/13 05:35:48;;;;;;;23.65;15.07;;;7.70;99.90;;;;;;5087896;28;20554;-74
2023/02/13 05:38:15;;;;;;;25.40;15.68;;;7.70;99.90;;;;;;5108461;27;20070;-74
2023/02/13 05:40:42;;;;;;;24.20;14.32;;;7.70;99.90;;;;;;5082165;28;20047;-74
2023/02/13 05:43:08;;;;;;;21.38;13.45;;;7.70;99.90;;;;;;5089131;27;20028;-74
2023/02/13 05:45:34;;;;;;;21.45;13.50;;;7.70;99.90;;;;;;5087526;27;20043;-74
2023/02/13 05:48:00;;;;;;;20.90;13.93;;;7.70;99.90;;;;;;5087931;28;20045;-75
2023/02/13 05:50:27;;;;;;;22.90;14.32;;;7.70;99.90;;;;;;5062430;28;20046;-75
2023/02/13 05:52:55;;;;;;;23.00;14.82;;;7.70;99.90;;;;;;5089020;27;20360;-73
2023/02/13 05:55:21;;;;;;;20.63;12.95;;;7.70;99.90;;;;;;5088834;28;20433;-73
2023/02/13 05:57:47;;;;;;;22.60;14.40;;;7.70;99.90;;;;;;5105355;27;20044;-74
2023/02/13 06:00:14;;;;;;;24.10;14.70;;;7.70;99.90;;;;;;5064314;27;20498;-73
2023/02/13 06:02:40;;;;;;;29.33;17.25;;;7.70;99.90;;;;;;5107829;27;20031;-73
2023/02/13 06:05:07;;;;;;;22.05;14.15;;;7.70;99.90;;;;;;5092067;28;20038;-73
2023/02/13 06:07:33;;;;;;;25.08;15.18;;;7.70;99.90;;;;;;5108590;27;20031;-74
2023/02/13 06:09:59;;;;;;;23.05;14.40;;;7.70;99.90;;;;;;5085684;28;20039;-74
2023/02/13 06:12:26;;;;;;;22.80;14.35;;;7.70;99.90;;;;;;5110047;28;20036;-74
2023/02/13 06:14:52;;;;;;;25.50;15.18;;;7.70;99.90;;;;;;5112171;28;20041;-75
2023/02/13 06:17:18;;;;;;;25.85;16.90;;;7.70;99.90;;;;;;5069814;28;20042;-74
2023/02/13 06:19:44;;;;;;;29.67;15.88;;;7.70;99.90;;;;;;5087920;28;20027;-75
2023/02/13 06:22:11;;;;;;;25.60;16.52;;;7.70;99.90;;;;;;5110878;28;20031;-73
2023/02/13 06:24:37;;;;;;;27.17;17.33;;;7.70;99.90;;;;;;5076257;28;20035;-73
2023/02/13 06:27:03;;;;;;;26.27;16.30;;;7.70;99.90;;;;;;5110972;28;20647;-75
2023/02/13 06:29:31;;;;;;;27.02;18.38;;;7.70;99.90;;;;;;5090652;28;20051;-73
2023/02/13 06:31:58;;;;;;;26.55;17.35;;;7.70;99.90;;;;;;5072446;28;20034;-74
2023/02/13 06:34:24;;;;;;;23.73;16.00;;;7.70;99.90;;;;;;5090439;28;20497;-74
2023/02/13 06:36:51;;;;;;;25.88;16.20;;;7.70;99.90;;;;;;5095293;28;20382;-74
2023/02/13 06:39:17;;;;;;;26.20;16.40;;;7.70;99.90;;;;;;5089325;28;20043;-73
2023/02/13 06:41:44;;;;;;;26.63;16.80;;;7.60;99.90;;;;;;5067289;28;20062;-74
2023/02/13 06:44:10;;;;;;;27.20;17.83;;;7.70;99.90;;;;;;5092399;28;20060;-74
2023/02/13 06:46:36;;;;;;;26.85;16.20;;;7.70;99.90;;;;;;5088599;28;20034;-74
2023/02/13 06:49:02;;;;;;;25.17;16.83;;;7.70;99.90;;;;;;5088372;28;20031;-75
2023/02/13 06:51:29;;;;;;;24.83;17.15;;;7.70;99.90;;;;;;5078642;28;20048;-73
2023/02/13 06:53:55;;;;;;;29.83;18.98;;;7.60;99.90;;;;;;5104428;28;20028;-74
2023/02/13 06:56:21;;;;;;;32.25;21.50;;;7.60;99.90;;;;;;5109652;28;20038;-74
2023/02/13 06:58:48;;;;;;;29.30;17.67;;;7.70;99.90;;;;;;5106570;28;20034;-74
2023/02/13 07:01:14;;;;;;;31.85;20.70;;;7.60;99.90;;;;;;5045649;28;20054;-73
2023/02/13 07:03:40;;;;;;;32.50;21.02;;;7.70;99.90;;;;;;5088676;28;20401;-74
2023/02/13 07:06:07;;;;;;;26.45;17.40;;;7.70;99.90;;;;;;5087540;28;20050;-74
2023/02/13 07:08:33;;;;;;;25.83;15.98;;;7.70;99.90;;;;;;5087203;28;20398;-74
2023/02/13 07:10:59;;;;;;;26.77;18.33;;;7.70;99.90;;;;;;5080364;28;20449;-73
2023/02/13 07:13:26;;;;;;;25.38;17.23;;;7.70;99.90;;;;;;5088962;28;20039;-73
2023/02/13 07:15:52;;;;;;;24.95;17.20;;;7.70;99.90;;;;;;5106828;28;20043;-75
2023/02/13 07:18:18;;;;;;;28.90;18.50;;;7.70;99.90;;;;;;5091036;28;20035;-73
2023/02/13 07:20:44;;;;;;;26.08;16.67;;;7.80;99.90;;;;;;5081161;27;20738;-74
2023/02/13 07:23:11;;;;;;;32.20;21.05;;;7.80;99.90;;;;;;5091225;27;20391;-74
2023/02/13 07:25:37;;;;;;;32.47;20.50;;;7.80;99.90;;;;;;5091192;27;20043;-74
2023/02/13 07:28:04;;;;;;;31.30;19.70;;;7.80;99.90;;;;;;5092312;28;20046;-74
2023/02/13 07:30:32;;;;;;;30.60;19.92;;;7.80;99.90;;;;;;5079276;27;20041;-74
2023/02/13 07:33:00;;;;;;;29.25;19.48;;;7.90;99.90;;;;;;5090989;27;20028;-74
2023/02/13 07:35:26;;;;;;;36.28;23.13;;;7.90;99.90;;;;;;5075032;27;20043;-74
2023/02/13 07:37:54;;;;;;;34.88;23.20;;;7.90;99.90;;;;;;5076039;27;20038;-74
2023/02/13 07:40:21;;;;;;;32.38;21.15;;;7.90;99.90;;;;;;5067320;28;20047;-73
2023/02/13 07:42:47;;;;;;;29.75;19.17;;;7.90;99.90;;;;;;5090264;27;20398;-74
2023/02/13 07:45:14;;;;;;;32.72;21.95;;;8.00;99.90;;;;;;5088995;27;20514;-73
2023/02/13 07:47:41;;;;;;;28.83;19.70;;;8.00;99.90;;;;;;5092025;28;20569;-74
2023/02/13 07:50:08;;;;;;;28.27;19.02;;;8.00;99.90;;;;;;5071989;27;20044;-74
2023/02/13 07:52:36;;;;;;;34.83;23.27;;;8.10;99.90;;;;;;5095899;27;20038;-74
2023/02/13 07:55:03;;;;;;;39.95;25.85;;;8.10;99.90;;;;;;5075481;28;20050;-74
2023/02/13 07:57:30;;;;;;;31.15;22.05;;;8.10;99.90;;;;;;5091021;28;20031;-74
2023/02/13 07:59:57;;;;;;;36.38;24.52;;;8.10;99.90;;;;;;5067800;27;20113;-74
2023/02/13 08:02:23;;;;;;;32.58;22.17;;;8.20;99.90;;;;;;5072489;27;20040;-74
2023/02/13 08:04:49;;;;;;;40.45;27.98;;;8.20;99.90;;;;;;5089687;28;21274;-74
2023/02/13 08:07:17;;;;;;;31.10;21.65;;;8.20;99.90;;;;;;5107560;27;20027;-73
2023/02/13 08:12:31;;;;;;;40.28;27.42;;;8.30;99.90;;;;;;5071248;27;20039;-75
2023/02/13 08:14:57;;;;;;;31.92;21.77;;;8.40;99.90;;;;;;5087035;27;20342;-73
2023/02/13 08:17:23;;;;;;;30.58;21.13;;;8.40;99.90;;;;;;5091101;27;20042;-73
2023/02/13 08:19:50;;;;;;;29.98;20.77;;;8.50;99.90;;;;;;5084406;27;20121;-76
2023/02/13 08:22:16;;;;;;;28.45;19.63;;;8.50;99.90;;;;;;5107693;27;20042;-73
2023/02/13 08:24:42;;;;;;;26.98;19.70;;;8.50;99.90;;;;;;5090522;27;20038;-74
2023/02/13 08:27:13;;;;;;;45.22;31.38;;;8.50;99.90;;;;;;5079768;27;20051;-73
2023/02/13 08:29:39;;;;;;;38.38;25.42;;;8.60;99.90;;;;;;5084157;27;20073;-73
2023/02/13 08:32:06;;;;;;;34.63;24.13;;;8.60;99.90;;;;;;5084954;27;20043;-75
2023/02/13 08:34:32;;;;;;;40.65;28.25;;;8.70;99.90;;;;;;5088137;28;20062;-74
2023/02/13 08:37:00;;;;;;;30.92;22.63;;;8.70;99.90;;;;;;5091662;27;20112;-74
2023/02/13 08:39:27;;;;;;;34.72;24.17;;;8.70;99.90;;;;;;5106670;27;20413;-75
2023/02/13 08:41:53;;;;;;;30.10;21.42;;;8.70;99.90;;;;;;5085410;27;20046;-74
2023/02/13 08:44:20;;;;;;;29.45;20.58;;;8.70;99.90;;;;;;5088926;28;20052;-74
2023/02/13 08:46:46;;;;;;;33.85;23.95;;;8.80;99.90;;;;;;5090004;27;20450;-73
2023/02/13 08:49:12;;;;;;;36.58;24.20;;;8.90;99.90;;;;;;5107973;27;20036;-74
2023/02/13 08:51:38;;;;;;;30.67;22.42;;;8.90;99.90;;;;;;5101151;27;20384;-74
2023/02/13 08:54:05;;;;;;;31.08;22.35;;;9.00;99.90;;;;;;5094184;27;20039;-74
2023/02/13 08:56:31;;;;;;;28.02;20.60;;;9.00;99.90;;;;;;5108107;27;20039;-74
2023/02/13 08:58:58;;;;;;;35.22;25.40;;;9.10;99.90;;;;;;5097960;27;20031;-73
2023/02/13 09:01:24;;;;;;;33.28;23.92;;;9.20;99.90;;;;;;5105587;27;20046;-75
2023/02/13 09:03:50;;;;;;;30.52;22.00;;;9.20;99.90;;;;;;5108773;27;20028;-73
2023/02/13 09:06:17;;;;;;;32.55;24.30;;;9.20;99.90;;;;;;5109043;27;20521;-73
2023/02/13 09:08:44;;;;;;;32.97;23.10;;;9.20;99.90;;;;;;5087276;28;20077;-73
2023/02/13 09:11:10;;;;;;;34.65;23.45;;;9.30;99.90;;;;;;5050235;27;20722;-74
2023/02/13 09:13:36;;;;;;;29.15;22.42;;;9.30;99.90;;;;;;5093436;27;20043;-74
2023/02/13 09:16:05;;;;;;;31.58;22.52;;;9.40;99.90;;;;;;5090019;27;20391;-73
2023/02/13 09:18:32;;;;;;;41.63;29.15;;;9.40;99.90;;;;;;5089802;28;20054;-74
2023/02/13 09:21:07;;;;;;;31.00;23.50;;;9.50;99.90;;;;;;5060680;28;20039;-74
2023/02/13 09:23:36;;;;;;;31.67;21.75;;;9.60;99.90;;;;;;5075924;28;20066;-76
2023/02/13 09:26:04;;;;;;;32.88;22.85;;;9.60;99.90;;;;;;5089627;28;20023;-75
2023/02/13 09:28:32;;;;;;;33.38;24.52;;;9.70;99.90;;;;;;5086619;27;20039;-74
2023/02/13 09:30:59;;;;;;;33.42;22.35;;;9.70;99.90;;;;;;5086872;27;20032;-76
2023/02/13 09:33:25;;;;;;;32.08;24.92;;;9.80;99.90;;;;;;5111186;27;20051;-74
2023/02/13 09:35:52;;;;;;;31.30;22.77;;;9.80;99.90;;;;;;5108977;27;20043;-75
2023/02/13 09:38:18;;;;;;;34.38;25.73;;;9.80;99.90;;;;;;5106227;27;20061;-75
2023/02/13 09:40:50;;;;;;;29.88;21.77;;;9.80;99.90;;;;;;5078763;27;20043;-75
2023/02/13 09:43:27;;;;;;;27.13;20.92;;;9.90;99.90;;;;;;5087912;27;20035;-75
2023/02/13 09:46:19;;;;;;;28.08;20.55;;;9.90;99.90;;;;;;5105632;27;20036;-74
2023/02/13 09:48:50;;;;;;;27.65;20.15;;;10.00;99.90;;;;;;5097782;27;20047;-75
2023/02/13 09:51:19;;;;;;;33.40;23.13;;;10.10;99.90;;;;;;5097320;27;20035;-78
2023/02/13 09:53:55;;;;;;;31.63;22.90;;;10.20;99.90;;;;;;5087378;28;20051;-75
2023/02/13 09:56:39;;;;;;;29.90;23.00;;;10.20;99.90;;;;;;5087416;28;20041;-74
2023/02/13 09:59:26;;;;;;;30.60;20.42;;;10.30;99.90;;;;;;5104581;27;20031;-73
2023/02/13 10:01:56;;;;;;;30.95;23.05;;;10.40;99.90;;;;;;5076612;27;20047;-75
2023/02/13 10:04:40;;;;;;;27.58;21.23;;;10.40;99.90;;;;;;5087716;28;20047;-75
2023/02/13 10:07:23;;;;;;;28.80;21.60;;;10.50;99.90;;;;;;5088771;28;20044;-75
2023/02/13 10:10:12;;;;;;;30.35;22.00;;;10.70;99.90;;;;;;5086756;28;20068;-76
2023/02/13 10:12:56;;;;;;;28.25;20.52;;;10.80;99.90;;;;;;5087408;27;20048;-74
2023/02/13 10:15:44;;;;;;;25.27;18.83;;;10.80;99.90;;;;;;5086856;28;20973;-74
2023/02/13 10:18:18;;;;;;;24.98;18.48;;;11.00;99.90;;;;;;5106644;28;20469;-73
2023/02/13 10:20:50;;;;;;;24.00;17.17;;;11.00;99.90;;;;;;5080374;28;20043;-75
2023/02/13 10:23:27;;;;;;;22.25;16.20;;;11.20;99.90;;;;;;5093095;28;20027;-74
2023/02/13 10:26:01;;;;;;;24.55;18.00;;;11.50;99.90;;;;;;5087849;28;20462;-74
2023/02/13 10:28:42;;;;;;;22.75;15.98;;;11.70;99.90;;;;;;5092115;28;20512;-74
2023/02/13 10:31:16;;;;;;;26.00;19.58;;;12.00;99.90;;;;;;5083032;28;20046;-74
2023/02/13 10:34:00;;;;;;;18.42;15.00;;;11.90;99.90;;;;;;5091795;28;20031;-75
2023/02/13 10:36:32;;;;;;;20.95;16.70;;;11.80;99.90;;;;;;5110107;28;20036;-75
2023/02/13 10:39:21;;;;;;;19.90;16.17;;;12.10;99.90;;;;;;5071597;28;20361;-74
2023/02/13 10:41:56;;;;;;;18.30;14.82;;;12.50;99.90;;;;;;5086532;28;20039;-74
2023/02/13 10:44:25;;;;;;;19.70;16.02;;;12.80;99.90;;;;;;5087808;28;20058;-75
2023/02/13 10:47:19;;;;;;;18.65;14.63;;;12.70;99.90;;;;;;5108029;28;20039;-74
2023/02/13 10:49:50;;;;;;;;;;;12.90;99.90;;;;;;5070887;28;20040;-73
2023/02/13 10:52:38;;;;;;;20.35;15.57;;;13.30;99.90;;;;;;5086319;27;19922;-75
2023/02/13 10:55:35;;;;;;;19.98;15.13;;;13.40;99.90;;;;;;5080006;27;20039;-75
2023/02/13 10:58:14;;;;;;;17.48;14.32;;;13.20;99.90;;;;;;5093573;27;20051;-72
2023/02/13 11:00:54;;;;;;;19.00;15.70;;;13.00;99.90;;;;;;5066308;28;20050;-74
2023/02/13 11:03:26;;;;;;;20.05;15.77;;;12.90;99.90;;;;;;5091483;27;20039;-73
2023/02/13 11:05:55;;;;;;;20.73;15.80;;;12.90;99.90;;;;;;5093451;27;20039;-74
2023/02/13 11:08:29;;;;;;;18.25;14.55;;;12.80;99.90;;;;;;5087349;27;20046;-75
2023/02/13 11:10:55;;;;;;;17.75;14.23;;;13.00;99.90;;;;;;5065346;28;20039;-72
2023/02/13 11:13:24;;;;;;;13.63;11.48;;;13.60;99.90;;;;;;5093275;27;20028;-72
2023/02/13 11:15:58;;;;;;;14.00;11.63;;;14.00;99.90;;;;;;5109517;27;20467;-73
2023/02/13 11:18:27;;;;;;;12.15;9.95;;;14.30;99.90;;;;;;5076099;27;20040;-76
2023/02/13 11:21:21;;;;;;;17.15;13.02;;;14.20;99.90;;;;;;5073311;27;20473;-73
2023/02/13 11:23:53;;;;;;;14.10;11.95;;;13.90;99.90;;;;;;5105692;27;20050;-74
2023/02/13 11:26:34;;;;;;;15.32;11.20;;;13.60;99.90;;;;;;5078985;27;20517;-74
2023/02/13 11:29:15;;;;;;;14.15;11.23;;;13.30;99.90;;;;;;5095631;27;20043;-74
2023/02/13 11:31:41;;;;;;;14.90;11.65;;;13.00;99.90;;;;;;5088071;27;20077;-73
2023/02/13 11:34:28;;;;;;;13.30;10.90;;;12.80;99.90;;;;;;5078600;27;20398;-74
2023/02/13 11:37:28;;;;;;;14.07;11.52;;;12.70;99.90;;;;;;5092316;27;20036;-73
2023/02/13 11:39:59;;;;;;;12.55;9.82;;;12.50;99.90;;;;;;5061218;27;20046;-75
2023/02/13 11:42:33;;;;;;;16.27;12.65;;;12.40;99.90;;;;;;5090071;28;20508;-74
2023/02/13 11:45:21;;;;;;;15.40;12.15;;;12.40;99.90;;;;;;5090441;28;20052;-73
2023/02/13 11:47:48;;;;;;;19.60;15.82;;;12.40;99.90;;;;;;5108407;27;20035;-73
2023/02/13 11:50:26;;;;;;;21.05;17.70;;;12.40;99.90;;;;;;5084678;27;20425;-74
2023/02/13 11:53:03;;;;;;;21.45;16.70;;;12.40;99.90;;;;;;5076386;28;20039;-73
2023/02/13 11:55:31;;;;;;;25.35;20.00;;;12.50;99.90;;;;;;5091773;27;20035;-74
2023/02/13 11:58:24;;;;;;;26.85;20.23;;;12.60;99.90;;;;;;5091771;28;20040;-74
2023/02/13 12:01:06;;;;;;;;;;;12.70;99.90;;;;;;5081012;27;20521;-73
2023/02/13 12:03:32;;;;;;;23.38;17.90;;;12.70;99.90;;;;;;5109517;27;19919;-74
2023/02/13 12:06:04;;;;;;;24.98;19.40;;;12.80;99.90;;;;;;5090076;28;20043;-72
2023/02/13 12:08:35;;;;;;;25.27;20.40;;;12.80;99.90;;;;;;5062500;27;20047;-73
2023/02/13 12:11:13;;;;;;;20.38;16.73;;;12.60;99.90;;;;;;5101157;27;20024;-74
2023/02/13 12:13:40;;;;;;;25.27;21.67;;;12.40;99.90;;;;;;5075925;28;20039;-74
2023/02/13 12:16:22;;;;;;;27.55;21.40;;;12.30;99.90;;;;;;5087714;27;20035;-73
2023/02/13 12:18:51;;;;;;;;;;;12.10;99.90;;;;;;5072660;28;20421;-73
2023/02/13 12:21:37;;;;;;;28.02;22.30;;;12.00;99.90;;;;;;5064450;27;20266;-72
2023/02/13 12:24:25;;;;;;;22.63;18.38;;;11.90;99.90;;;;;;5108958;27;20039;-74
2023/02/13 12:27:43;;;;;;;23.58;19.88;;;12.00;99.90;;;;;;5095293;27;20474;-73
2023/02/13 12:30:31;;;;;;;20.17;17.10;;;12.30;99.90;;;;;;5031952;27;20055;-74
2023/02/13 12:33:15;;;;;;;19.13;16.77;;;13.00;99.90;;;;;;5091522;28;20054;-74
2023/02/13 12:35:55;;;;;;;18.92;16.35;;;13.00;99.90;;;;;;5108487;27;20024;-74
2023/02/13 12:38:46;;;;;;;21.08;18.63;;;12.90;99.90;;;;;;5074898;28;20394;-74
2023/02/13 12:41:24;;;;;;;21.25;18.77;;;12.80;99.90;;;;;;5079560;28;20482;-73
2023/02/13 12:44:12;;;;;;;26.23;22.75;;;12.70;99.90;;;;;;5107310;27;20714;-74
2023/02/13 12:47:03;;;;;;;24.70;21.65;;;12.50;99.90;;;;;;5068783;27;20035;-73
2023/02/13 12:50:04;;;;;;;23.23;20.25;;;12.40;99.90;;;;;;5104103;27;20036;-76
2023/02/13 12:53:14;;;;;;;20.52;17.60;;;12.30;99.90;;;;;;5055932;28;20059;-73
2023/02/13 12:55:53;;;;;;;22.08;19.67;;;12.10;99.90;;;;;;5065842;27;20051;-75
2023/02/13 12:58:31;;;;;;;22.15;19.75;;;12.00;99.90;;;;;;5071664;27;20060;-74
2023/02/13 13:01:08;;;;;;;24.70;20.75;;;11.90;99.90;;;;;;5082194;27;20061;-72
2023/02/13 13:03:52;;;;;;;24.83;21.58;;;11.70;99.90;;;;;;5078600;28;20053;-73
2023/02/13 13:06:37;;;;;;;22.05;18.17;;;11.60;99.90;;;;;;5091243;27;20035;-72
2023/02/13 13:09:12;;;;;;;21.38;18.92;;;11.60;99.90;;;;;;5109489;27;20434;-75
2023/02/13 13:11:57;;;;;;;26.15;22.50;;;11.60;99.90;;;;;;5064029;27;20467;-73
2023/02/13 13:14:47;;;;;;;27.42;24.10;;;11.70;99.90;;;;;;5088008;27;20043;-73
2023/02/13 13:17:42;;;;;;;24.98;20.90;;;11.60;99.90;;;;;;5119495;27;20038;-72
2023/02/13 13:20:47;;;;;;;21.13;18.02;;;11.60;99.90;;;;;;5091802;27;20522;-72
2023/02/13 13:23:50;;;;;;;19.63;17.27;;;11.70;99.90;;;;;;5118581;27;20042;-73
2023/02/13 13:26:23;;;;;;;21.33;18.20;;;11.70;99.90;;;;;;5092872;27;20050;-77
2023/02/13 13:28:54;;;;;;;22.85;16.85;;;11.70;99.90;;;;;;5086877;27;20039;-74
2023/02/13 13:31:25;;;;;;;20.05;17.58;;;11.70;99.90;;;;;;5080806;28;20470;-74
2023/02/13 13:33:52;;;;;;;19.25;17.13;;;11.60;99.90;;;;;;5106197;27;20032;-74
2023/02/13 13:36:40;;;;;;;21.08;18.27;;;11.60;99.90;;;;;;5072965;27;20043;-73
2023/02/13 13:39:26;;;;;;;19.02;17.02;;;11.60;99.90;;;;;;5063387;27;20387;-76
2023/02/13 13:42:12;;;;;;;21.95;19.65;;;11.60;99.90;;;;;;5069263;28;20059;-77
2023/02/13 13:44:44;;;;;;;23.23;18.60;;;11.50;99.90;;;;;;5108652;27;20059;-76
2023/02/13 13:47:30;;;;;;;18.13;15.98;;;11.50;99.90;;;;;;5091532;27;20386;-73